createdAt,value
2023-08-31T00:02:25.430Z,91.90
2023-08-31T00:04:55.380Z,92.07
2023-08-31T00:07:23.839Z,92.16
2023-08-31T00:09:52.716Z,92.17
2023-08-31T00:12:20.662Z,92.39
2023-08-31T00:14:48.957Z,92.38
2023-08-31T00:17:16.809Z,92.54
2023-08-31T00:19:44.821Z,92.37
2023-08-31T00:22:14.004Z,92.53
2023-08-31T00:24:41.910Z,92.46
2023-08-31T00:27:11.502Z,92.51
2023-08-31T00:29:40.061Z,92.63
2023-08-31T00:32:08.954Z,92.68
2023-08-31T00:34:36.797Z,92.99
2023-08-31T00:37:04.834Z,93.23
2023-08-31T00:39:35.137Z,93.10
2023-08-31T00:42:04.335Z,93.26
2023-08-31T00:44:34.373Z,93.05
2023-08-31T00:47:03.224Z,93.03
2023-08-31T00:49:31.235Z,93.05
2023-08-31T00:52:00.203Z,93.05
2023-08-31T00:54:28.851Z,93.35
2023-08-31T00:56:58.398Z,93.35
2023-08-31T00:59:27.641Z,93.24
2023-08-31T01:02:01.040Z,93.20
2023-08-31T01:04:35.542Z,93.56
2023-08-31T01:07:10.136Z,93.46
2023-08-31T01:09:45.043Z,93.57
2023-08-31T01:12:20.667Z,93.63
2023-08-31T01:14:56.476Z,93.65
2023-08-31T01:17:25.701Z,93.76
2023-08-31T01:19:54.468Z,93.71
2023-08-31T01:22:31.831Z,93.78
2023-08-31T01:25:05.465Z,93.91
2023-08-31T01:27:33.965Z,94.18
2023-08-31T01:30:01.892Z,94.42
2023-08-31T01:32:29.983Z,94.50
2023-08-31T01:34:58.586Z,94.52
2023-08-31T01:37:36.994Z,94.44
2023-08-31T01:40:12.847Z,94.73
2023-08-31T01:42:42.723Z,94.97
2023-08-31T01:45:12.627Z,94.73
2023-08-31T01:47:40.685Z,94.76
2023-08-31T01:50:08.999Z,94.63
2023-08-31T01:52:36.890Z,94.52
2023-08-31T01:55:08.833Z,94.36
2023-08-31T01:57:36.792Z,94.24
2023-08-31T02:00:11.607Z,94.10
2023-08-31T02:02:42.700Z,94.09
2023-08-31T02:05:11.135Z,94.05
2023-08-31T02:07:39.319Z,93.83
2023-08-31T02:10:09.597Z,94.11
2023-08-31T02:12:38.334Z,93.99
2023-08-31T02:15:06.918Z,94.44
2023-08-31T02:17:35.811Z,94.71
2023-08-31T02:20:05.624Z,94.70
2023-08-31T02:22:36.193Z,94.67
2023-08-31T02:25:04.729Z,94.76
2023-08-31T02:27:34.013Z,94.87
2023-08-31T02:30:02.048Z,94.99
2023-08-31T02:32:30.106Z,95.22
2023-08-31T02:34:58.185Z,95.49
2023-08-31T02:37:26.080Z,95.68
2023-08-31T02:39:53.960Z,95.54
2023-08-31T02:42:21.842Z,95.34
2023-08-31T02:44:54.294Z,95.48
2023-08-31T02:47:22.203Z,95.14
2023-08-31T02:49:53.021Z,94.97
2023-08-31T02:52:20.920Z,94.90
2023-08-31T02:54:48.874Z,94.90
2023-08-31T02:57:20.511Z,94.82
2023-08-31T02:59:53.241Z,94.89
2023-08-31T03:02:21.407Z,94.83
2023-08-31T03:04:49.371Z,95.89
2023-08-31T03:07:17.297Z,97.75
2023-08-31T03:09:45.233Z,94.24
2023-08-31T03:12:13.312Z,92.65
2023-08-31T03:14:41.486Z,92.26
2023-08-31T03:17:10.737Z,94.08
2023-08-31T03:19:38.431Z,92.21
2023-08-31T03:22:06.391Z,93.87
2023-08-31T03:24:34.586Z,92.69
2023-08-31T03:27:02.446Z,91.24
2023-08-31T03:29:33.031Z,91.96
2023-08-31T03:32:02.410Z,92.65
2023-08-31T03:34:32.551Z,93.13
2023-08-31T03:37:00.579Z,93.60
2023-08-31T03:39:28.529Z,93.87
2023-08-31T03:41:56.414Z,94.14
2023-08-31T03:44:24.632Z,94.35
2023-08-31T03:46:52.551Z,94.59
2023-08-31T03:49:20.620Z,94.97
2023-08-31T03:51:49.822Z,94.93
2023-08-31T03:54:18.997Z,95.02
2023-08-31T03:56:46.893Z,95.02
2023-08-31T03:59:15.019Z,95.19
2023-08-31T04:01:42.992Z,95.37
2023-08-31T04:04:12.965Z,95.45
2023-08-31T04:06:40.897Z,95.58
2023-08-31T04:09:10.447Z,95.67
2023-08-31T04:11:38.323Z,95.70
2023-08-31T04:14:06.254Z,95.83
2023-08-31T04:16:34.346Z,95.89
2023-08-31T04:19:02.185Z,96.05
2023-08-31T04:21:30.018Z,96.10
2023-08-31T04:24:00.870Z,96.16
2023-08-31T04:26:30.618Z,96.13
2023-08-31T04:28:58.513Z,96.42
2023-08-31T04:31:26.511Z,96.21
2023-08-31T04:33:55.300Z,96.42
2023-08-31T04:36:23.179Z,96.14
2023-08-31T04:38:51.438Z,96.13
2023-08-31T04:41:19.318Z,96.22
2023-08-31T04:43:49.640Z,96.27
2023-08-31T04:46:17.584Z,96.44
2023-08-31T04:48:45.448Z,96.47
2023-08-31T04:51:31.554Z,96.18
2023-08-31T04:53:59.405Z,96.03
2023-08-31T04:56:27.217Z,96.04
2023-08-31T04:58:56.437Z,96.03
2023-08-31T05:01:24.139Z,96.17
2023-08-31T05:03:52.602Z,95.89
2023-08-31T05:06:21.206Z,95.90
2023-08-31T05:08:49.348Z,95.78
2023-08-31T05:11:17.389Z,95.69
2023-08-31T05:13:45.252Z,95.63
2023-08-31T05:16:14.519Z,95.62
2023-08-31T05:18:42.559Z,95.50
2023-08-31T05:21:10.571Z,95.38
2023-08-31T05:23:38.537Z,95.38
2023-08-31T05:26:06.465Z,95.31
2023-08-31T05:28:34.599Z,95.21
2023-08-31T05:31:03.702Z,94.83
2023-08-31T05:33:35.197Z,94.71
2023-08-31T05:36:05.633Z,94.39
2023-08-31T05:38:33.551Z,92.99
2023-08-31T05:41:10.927Z,93.49
2023-08-31T05:43:41.310Z,92.43
2023-08-31T05:46:10.203Z,90.37
2023-08-31T05:48:39.525Z,88.73
2023-08-31T05:51:07.322Z,87.30
2023-08-31T05:53:35.964Z,84.72
2023-08-31T05:56:06.176Z,83.77
2023-08-31T05:58:35.146Z,83.25
2023-08-31T06:01:03.477Z,81.80
2023-08-31T06:03:31.972Z,79.58
2023-08-31T06:06:01.930Z,77.58
2023-08-31T06:08:30.735Z,78.05
2023-08-31T06:10:58.884Z,76.58
2023-08-31T06:13:26.856Z,76.28
2023-08-31T06:15:56.624Z,75.67
2023-08-31T06:18:24.630Z,73.62
2023-08-31T06:20:52.470Z,74.03
2023-08-31T06:23:21.795Z,70.68
2023-08-31T06:25:49.665Z,72.09
2023-08-31T06:28:17.526Z,70.68
2023-08-31T06:30:47.693Z,71.08
2023-08-31T06:33:16.373Z,70.37
2023-08-31T06:35:44.725Z,67.99
2023-08-31T06:38:12.595Z,67.41
2023-08-31T06:40:44.381Z,66.70
2023-08-31T06:43:12.588Z,66.99
2023-08-31T06:45:41.416Z,67.75
2023-08-31T06:48:09.777Z,66.32
2023-08-31T06:50:37.859Z,65.29
2023-08-31T06:53:06.089Z,64.45
2023-08-31T06:55:34.816Z,62.98
2023-08-31T06:58:05.591Z,64.24
2023-08-31T07:00:34.219Z,63.20
2023-08-31T07:03:02.222Z,63.52
2023-08-31T07:05:30.867Z,62.55
2023-08-31T07:07:59.502Z,61.95
2023-08-31T07:10:27.385Z,63.06
2023-08-31T07:12:55.437Z,62.96
2023-08-31T07:15:24.710Z,62.11
2023-08-31T07:17:52.613Z,61.28
2023-08-31T07:20:20.513Z,60.18
2023-08-31T07:22:48.496Z,59.68
2023-08-31T07:25:16.666Z,59.34
2023-08-31T07:27:44.507Z,58.92
2023-08-31T07:30:12.951Z,60.19
2023-08-31T07:32:42.238Z,60.22
2023-08-31T07:35:10.429Z,59.10
2023-08-31T07:37:38.389Z,58.68
2023-08-31T07:40:09.486Z,58.94
2023-08-31T07:42:37.434Z,60.45
2023-08-31T07:45:06.751Z,59.61
2023-08-31T07:47:35.576Z,57.40
2023-08-31T07:50:05.399Z,56.79
2023-08-31T07:52:33.294Z,56.64
2023-08-31T07:55:01.911Z,56.53
2023-08-31T07:57:29.754Z,57.82
2023-08-31T07:59:57.812Z,58.47
2023-08-31T08:02:25.743Z,58.53
2023-08-31T08:04:53.677Z,57.46
2023-08-31T08:07:22.894Z,58.29
2023-08-31T08:09:50.848Z,58.78
2023-08-31T08:12:18.693Z,59.78
2023-08-31T08:14:46.609Z,59.97
2023-08-31T08:17:14.463Z,60.36
2023-08-31T08:19:42.599Z,58.33
2023-08-31T08:22:10.770Z,60.01
2023-08-31T08:24:41.385Z,58.70
2023-08-31T08:27:11.320Z,58.36
2023-08-31T08:29:39.232Z,57.96
2023-08-31T08:32:09.895Z,59.03
2023-08-31T08:34:37.777Z,58.04
2023-08-31T08:37:06.041Z,58.25
2023-08-31T08:39:33.899Z,57.90
2023-08-31T08:42:06.737Z,59.68
2023-08-31T08:44:35.433Z,60.04
2023-08-31T08:47:03.169Z,59.71
2023-08-31T08:49:33.317Z,57.74
2023-08-31T08:52:01.311Z,57.82
2023-08-31T08:54:29.537Z,59.85
2023-08-31T08:56:58.442Z,61.48
2023-08-31T08:59:28.626Z,61.40
2023-08-31T09:01:56.574Z,61.86
2023-08-31T09:04:24.452Z,62.60
2023-08-31T09:06:52.925Z,63.09
2023-08-31T09:09:20.959Z,62.20
2023-08-31T09:11:48.846Z,59.79
2023-08-31T09:14:17.582Z,58.27
2023-08-31T09:16:48.761Z,60.35
2023-08-31T09:19:21.460Z,63.41
2023-08-31T09:21:50.036Z,63.43
2023-08-31T09:24:18.723Z,63.88
2023-08-31T09:26:47.349Z,62.61
2023-08-31T09:29:15.545Z,60.73
2023-08-31T09:31:48.535Z,61.48
2023-08-31T09:34:17.240Z,59.79
2023-08-31T09:36:45.670Z,60.68
2023-08-31T09:39:16.342Z,60.70
2023-08-31T09:41:57.140Z,58.71
2023-08-31T09:44:25.272Z,59.10
2023-08-31T09:46:55.005Z,57.81
2023-08-31T09:49:23.736Z,58.49
2023-08-31T09:51:51.932Z,59.32
2023-08-31T09:54:22.800Z,61.84
2023-08-31T09:56:50.713Z,63.92
2023-08-31T09:59:18.920Z,65.74
2023-08-31T10:01:48.248Z,64.77
2023-08-31T10:04:18.530Z,65.96
2023-08-31T10:06:46.392Z,68.18
2023-08-31T10:09:16.317Z,68.55
2023-08-31T10:11:44.592Z,70.30
2023-08-31T10:14:13.994Z,70.35
2023-08-31T10:16:43.088Z,71.72
2023-08-31T10:19:10.997Z,72.10
2023-08-31T10:21:42.327Z,72.44
2023-08-31T10:24:10.329Z,72.39
2023-08-31T10:26:38.332Z,73.48
2023-08-31T10:29:07.454Z,73.34
2023-08-31T10:31:36.890Z,74.11
2023-08-31T10:34:05.740Z,74.22
2023-08-31T10:36:45.220Z,72.74
2023-08-31T10:39:14.534Z,69.09
2023-08-31T10:41:42.568Z,67.31
2023-08-31T10:44:21.787Z,68.56
2023-08-31T10:46:50.984Z,68.63
2023-08-31T10:49:20.845Z,69.94
2023-08-31T10:51:52.208Z,70.34
2023-08-31T10:54:25.654Z,72.18
2023-08-31T10:57:04.009Z,71.92
2023-08-31T10:59:52.497Z,70.16
2023-08-31T11:02:36.079Z,65.17
2023-08-31T11:05:09.366Z,66.41
2023-08-31T11:07:39.943Z,71.07
2023-08-31T11:10:16.499Z,74.11
2023-08-31T11:12:46.280Z,75.81
2023-08-31T11:15:15.488Z,77.07
2023-08-31T11:17:43.862Z,78.76
2023-08-31T11:20:17.867Z,78.73
2023-08-31T11:22:50.647Z,79.09
2023-08-31T11:25:19.605Z,78.56
2023-08-31T11:27:56.409Z,76.12
2023-08-31T11:30:24.574Z,75.86
2023-08-31T11:32:53.792Z,75.16
2023-08-31T11:35:22.571Z,75.21
2023-08-31T11:37:54.139Z,73.78
2023-08-31T11:40:22.180Z,70.84
2023-08-31T11:42:51.037Z,70.76
2023-08-31T11:45:20.152Z,69.30
2023-08-31T11:47:49.907Z,69.86
2023-08-31T11:50:18.959Z,72.80
2023-08-31T11:52:46.828Z,73.55
2023-08-31T11:55:18.515Z,73.59
2023-08-31T11:57:51.782Z,74.25
2023-08-31T12:00:21.926Z,75.10
2023-08-31T12:02:57.979Z,75.49
2023-08-31T12:05:26.071Z,75.65
2023-08-31T12:07:55.895Z,75.78
2023-08-31T12:10:26.349Z,75.80
2023-08-31T12:12:56.790Z,77.16
2023-08-31T12:15:24.923Z,77.07
2023-08-31T12:17:55.676Z,78.83
2023-08-31T12:20:27.219Z,78.25
2023-08-31T12:22:55.089Z,80.04
2023-08-31T12:25:23.328Z,79.98
2023-08-31T12:27:52.658Z,80.89
2023-08-31T12:30:20.640Z,80.71
2023-08-31T12:32:48.800Z,78.32
2023-08-31T12:35:17.009Z,78.98
2023-08-31T12:37:44.899Z,78.42
2023-08-31T12:40:13.439Z,78.65
2023-08-31T12:42:41.335Z,79.47
2023-08-31T12:45:11.440Z,78.45
2023-08-31T12:47:39.343Z,77.91
2023-08-31T12:50:08.340Z,77.93
2023-08-31T12:52:36.240Z,76.55
2023-08-31T12:55:05.371Z,75.57
2023-08-31T12:57:33.056Z,75.81
2023-08-31T13:00:00.910Z,74.96
2023-08-31T13:02:30.209Z,74.76
2023-08-31T13:04:58.192Z,75.58
2023-08-31T13:07:26.049Z,75.35
2023-08-31T13:09:53.921Z,74.24
2023-08-31T13:12:21.763Z,71.57
2023-08-31T13:14:49.650Z,72.99
2023-08-31T13:17:17.482Z,72.75
2023-08-31T13:19:46.706Z,73.77
2023-08-31T13:22:16.588Z,73.82
2023-08-31T13:24:44.512Z,72.33
2023-08-31T13:27:12.381Z,72.20
2023-08-31T13:29:40.224Z,69.74
2023-08-31T13:32:08.347Z,68.01
2023-08-31T13:34:37.767Z,69.75
2023-08-31T13:37:07.330Z,69.71
2023-08-31T13:39:36.942Z,69.72
2023-08-31T13:42:05.821Z,70.65
2023-08-31T13:44:33.736Z,71.27
2023-08-31T13:47:01.629Z,68.86
2023-08-31T13:49:29.503Z,69.50
2023-08-31T13:51:57.320Z,67.10
2023-08-31T13:54:26.788Z,66.13
2023-08-31T13:56:54.707Z,66.72
2023-08-31T13:59:22.615Z,67.88
2023-08-31T14:01:50.517Z,66.02
2023-08-31T14:04:18.463Z,67.01
2023-08-31T14:06:46.344Z,67.47
2023-08-31T14:09:14.233Z,67.91
2023-08-31T14:11:43.480Z,68.47
2023-08-31T14:14:12.172Z,70.37
2023-08-31T14:16:40.414Z,69.89
2023-08-31T14:19:08.283Z,70.20
2023-08-31T14:21:36.152Z,70.07
2023-08-31T14:24:05.246Z,70.68
2023-08-31T14:26:33.001Z,70.64
2023-08-31T14:29:02.220Z,68.81
2023-08-31T14:31:30.135Z,69.06
2023-08-31T14:33:58.130Z,69.80
2023-08-31T14:36:28.124Z,69.93
2023-08-31T14:38:56.003Z,70.01
2023-08-31T14:41:23.994Z,70.07
2023-08-31T14:43:52.371Z,69.40
2023-08-31T14:46:23.018Z,69.81
2023-08-31T14:48:50.870Z,69.97
2023-08-31T14:51:18.960Z,68.95
2023-08-31T14:53:46.764Z,69.24
2023-08-31T14:56:14.665Z,69.59
2023-08-31T14:58:42.528Z,68.61
2023-08-31T15:01:10.376Z,67.62
2023-08-31T15:03:39.684Z,68.12
2023-08-31T15:06:07.677Z,67.99
2023-08-31T15:08:42.041Z,66.62
2023-08-31T15:11:10.129Z,67.82
2023-08-31T15:13:37.988Z,66.23
2023-08-31T15:16:06.225Z,66.88
2023-08-31T15:18:34.245Z,67.27
2023-08-31T15:21:03.467Z,67.46
2023-08-31T15:23:31.343Z,67.43
2023-08-31T15:26:03.735Z,67.91
2023-08-31T15:28:31.757Z,68.25
2023-08-31T15:30:59.635Z,67.59
2023-08-31T15:33:27.576Z,67.34
2023-08-31T15:36:06.290Z,68.16
2023-08-31T15:38:34.789Z,67.16
2023-08-31T15:41:03.761Z,68.37
2023-08-31T15:43:33.210Z,68.24
2023-08-31T15:46:01.614Z,68.19
2023-08-31T15:48:30.035Z,68.73
2023-08-31T15:50:58.592Z,69.31
2023-08-31T15:53:29.138Z,69.84
2023-08-31T15:55:57.592Z,70.11
2023-08-31T15:58:27.577Z,69.63
2023-08-31T16:01:02.406Z,70.34
2023-08-31T16:03:32.079Z,70.35
2023-08-31T16:06:01.324Z,70.40
2023-08-31T16:08:30.693Z,70.42
2023-08-31T16:10:58.866Z,70.23
2023-08-31T16:13:26.846Z,70.58
2023-08-31T16:15:54.784Z,70.92
2023-08-31T16:18:22.716Z,70.87
2023-08-31T16:20:50.635Z,71.31
2023-08-31T16:23:18.526Z,71.36
2023-08-31T16:25:47.780Z,72.06
2023-08-31T16:28:15.826Z,71.98
2023-08-31T16:30:47.673Z,71.55
2023-08-31T16:33:15.836Z,71.72
2023-08-31T16:35:43.724Z,71.92
2023-08-31T16:38:11.923Z,71.36
2023-08-31T16:40:40.312Z,72.48
2023-08-31T16:43:09.595Z,72.56
2023-08-31T16:45:37.416Z,71.99
2023-08-31T16:48:06.080Z,71.81
2023-08-31T16:50:36.003Z,72.24
2023-08-31T16:53:04.192Z,72.57
2023-08-31T16:55:32.375Z,72.46
2023-08-31T16:58:00.833Z,72.19
2023-08-31T17:00:30.336Z,72.95
2023-08-31T17:02:58.325Z,73.05
2023-08-31T17:05:26.230Z,72.83
2023-08-31T17:07:54.087Z,73.25
2023-08-31T17:10:22.125Z,72.72
2023-08-31T17:12:50.011Z,73.02
2023-08-31T17:15:18.005Z,73.54
2023-08-31T17:17:48.897Z,73.38
2023-08-31T17:20:19.277Z,73.28
2023-08-31T17:22:48.190Z,73.66
2023-08-31T17:25:16.165Z,73.48
2023-08-31T17:27:44.104Z,73.70
2023-08-31T17:30:12.418Z,73.77
2023-08-31T17:32:40.522Z,73.78
2023-08-31T17:35:10.743Z,74.23
2023-08-31T17:37:39.507Z,74.49
2023-08-31T17:40:09.019Z,74.74
2023-08-31T17:42:37.759Z,74.65
2023-08-31T17:45:06.446Z,75.13
2023-08-31T17:47:34.605Z,75.33
2023-08-31T17:50:03.896Z,75.04
2023-08-31T17:52:33.222Z,75.10
2023-08-31T17:55:01.279Z,75.66
2023-08-31T17:57:30.270Z,75.69
2023-08-31T17:59:58.263Z,75.94
2023-08-31T18:02:26.303Z,76.15
2023-08-31T18:04:54.897Z,75.40
2023-08-31T18:07:22.861Z,75.87
2023-08-31T18:09:52.150Z,75.70
2023-08-31T18:12:20.015Z,76.08
2023-08-31T18:14:47.958Z,76.24
2023-08-31T18:17:16.032Z,76.53
2023-08-31T18:19:44.003Z,76.49
2023-08-31T18:22:11.948Z,77.04
2023-08-31T18:24:39.837Z,76.92
2023-08-31T18:27:11.610Z,77.07
2023-08-31T18:29:39.771Z,77.04
2023-08-31T18:32:07.992Z,77.52
2023-08-31T18:34:36.653Z,77.81
2023-08-31T18:37:04.952Z,78.04
2023-08-31T18:39:32.897Z,78.55
2023-08-31T18:42:02.268Z,78.37
2023-08-31T18:44:31.564Z,79.11
2023-08-31T18:46:59.609Z,79.23
2023-08-31T18:49:27.544Z,79.55
2023-08-31T18:51:55.541Z,80.02
2023-08-31T18:54:23.633Z,80.60
2023-08-31T18:56:51.690Z,81.14
2023-08-31T18:59:19.632Z,81.25
2023-08-31T19:01:51.223Z,81.47
2023-08-31T19:04:19.420Z,81.72
2023-08-31T19:06:47.342Z,81.81
2023-08-31T19:09:15.372Z,81.96
2023-08-31T19:11:44.098Z,82.13
2023-08-31T19:14:12.084Z,82.38
2023-08-31T19:16:40.255Z,82.58
2023-08-31T19:19:09.725Z,83.04
2023-08-31T19:21:37.688Z,83.36
2023-08-31T19:24:06.357Z,83.73
2023-08-31T19:26:37.537Z,84.10
2023-08-31T19:29:05.573Z,84.66
2023-08-31T19:31:33.635Z,84.84
2023-08-31T19:34:01.700Z,85.06
2023-08-31T19:36:31.117Z,85.45
2023-08-31T19:38:58.988Z,85.78
2023-08-31T19:41:26.926Z,86.08
2023-08-31T19:43:54.834Z,86.17
2023-08-31T19:46:22.716Z,86.24
2023-08-31T19:48:50.611Z,86.54
2023-08-31T19:51:18.500Z,86.59
2023-08-31T19:53:47.724Z,86.78
2023-08-31T19:56:15.460Z,87.01
2023-08-31T19:58:43.299Z,86.98
2023-08-31T20:01:11.345Z,87.11
2023-08-31T20:03:39.900Z,87.34
2023-08-31T20:06:08.451Z,87.58
2023-08-31T20:08:38.029Z,87.55
2023-08-31T20:11:07.436Z,88.10
2023-08-31T20:13:35.468Z,87.98
2023-08-31T20:16:04.632Z,87.98
2023-08-31T20:18:32.465Z,87.65
2023-08-31T20:21:00.339Z,87.84
2023-08-31T20:23:28.244Z,87.90
2023-08-31T20:25:56.738Z,88.13
2023-08-31T20:28:26.005Z,88.25
2023-08-31T20:30:55.338Z,88.38
2023-08-31T20:33:23.345Z,88.35
2023-08-31T20:35:51.378Z,88.18
2023-08-31T20:38:19.339Z,88.13
2023-08-31T20:40:48.296Z,88.17
2023-08-31T20:43:16.179Z,88.13
2023-08-31T20:45:45.433Z,88.21
2023-08-31T20:48:14.920Z,87.86
2023-08-31T20:50:43.139Z,88.10
2023-08-31T20:53:11.018Z,88.13
2023-08-31T20:55:39.005Z,88.17
2023-08-31T20:58:06.975Z,88.26
2023-08-31T21:00:34.892Z,88.13
2023-08-31T21:03:04.722Z,88.25
2023-08-31T21:05:32.661Z,88.38
2023-08-31T21:08:00.643Z,88.25
2023-08-31T21:10:28.674Z,88.13
2023-08-31T21:12:56.692Z,88.60
2023-08-31T21:15:24.777Z,88.31
2023-08-31T21:17:52.849Z,88.49
2023-08-31T21:20:22.160Z,88.31
2023-08-31T21:22:50.144Z,88.47
2023-08-31T21:25:18.240Z,88.41
2023-08-31T21:27:46.194Z,88.76
2023-08-31T21:30:14.237Z,88.46
2023-08-31T21:32:42.561Z,88.87
2023-08-31T21:35:10.475Z,88.43
2023-08-31T21:37:40.037Z,88.36
2023-08-31T21:40:08.918Z,88.61
2023-08-31T21:42:36.827Z,88.74
2023-08-31T21:45:05.067Z,88.66
2023-08-31T21:47:33.110Z,88.35
2023-08-31T21:50:01.062Z,88.29
2023-08-31T21:52:28.942Z,88.11
2023-08-31T21:54:58.220Z,88.36
2023-08-31T21:57:26.735Z,88.37
2023-08-31T21:59:54.678Z,88.50
2023-08-31T22:02:22.657Z,88.49
2023-08-31T22:04:51.932Z,88.40
2023-08-31T22:07:21.269Z,88.10
2023-08-31T22:09:51.090Z,88.22
2023-08-31T22:12:20.687Z,88.05
2023-08-31T22:14:49.262Z,87.97
2023-08-31T22:17:17.532Z,88.24
2023-08-31T22:19:46.163Z,88.04
2023-08-31T22:22:14.576Z,87.94
2023-08-31T22:24:42.780Z,87.94
2023-08-31T22:27:10.945Z,88.10
2023-08-31T22:29:40.577Z,87.77
2023-08-31T22:32:08.792Z,87.81
2023-08-31T22:34:36.739Z,87.67
2023-08-31T22:37:05.058Z,87.57
2023-08-31T22:39:33.304Z,87.74
2023-08-31T22:42:01.195Z,87.92
2023-08-31T22:44:29.087Z,88.04
2023-08-31T22:46:58.373Z,87.95
2023-08-31T22:49:26.252Z,87.98
2023-08-31T22:51:54.177Z,88.14
2023-08-31T22:54:22.246Z,88.09
2023-08-31T22:56:50.245Z,87.87
2023-08-31T22:59:18.131Z,87.86
2023-08-31T23:01:47.240Z,88.14
2023-08-31T23:04:16.503Z,88.10
2023-08-31T23:06:44.539Z,88.00
2023-08-31T23:09:12.402Z,87.85
2023-08-31T23:11:40.296Z,87.87
2023-08-31T23:14:08.209Z,87.84
2023-08-31T23:16:36.035Z,88.21
2023-08-31T23:19:03.980Z,88.38
2023-08-31T23:21:42.088Z,88.48
2023-08-31T23:24:11.502Z,88.51
2023-08-31T23:26:39.573Z,88.60
2023-08-31T23:29:07.898Z,88.62
2023-08-31T23:31:36.121Z,88.68
2023-08-31T23:34:04.129Z,88.86
2023-08-31T23:36:33.666Z,88.94
2023-08-31T23:39:02.128Z,88.93
2023-08-31T23:41:30.210Z,89.02
2023-08-31T23:43:58.046Z,88.87
2023-08-31T23:46:26.163Z,88.92
2023-08-31T23:48:54.077Z,88.90
2023-08-31T23:51:21.913Z,88.99
2023-08-31T23:53:51.172Z,89.08
2023-08-31T23:56:18.854Z,89.16
2023-08-31T23:58:48.270Z,89.13
